Amarillo (AMA/KAMA)

Map

Destinations

Information

Location
Amarillo, TX
Local Time
00:13 / 12:13 am
GMT Time
06:13 / 6:13 am
Gates
A2
No FAA reported delays
METAR KAMA 140553Z AUTO 03007KT 10SM CLR 02/M09 A3001 RMK AO2 SLP149 T00221094 10089 20006 401781011 58002
TAF KAMA 140538Z 1406/1506 02009KT P6SM SCT300 FM141500 01013KT P6SM SCT100 BKN300 FM150000 34008KT P6SM SCT120 BKN300